createdAt,value
2023-12-04T00:01:37.860Z,0.43
2023-12-04T00:04:06.713Z,0.50
2023-12-04T00:06:35.117Z,0.52
2023-12-04T00:09:03.385Z,0.50
2023-12-04T00:11:33.090Z,0.65
2023-12-04T00:14:01.489Z,0.80
2023-12-04T00:16:31.093Z,0.65
2023-12-04T00:18:59.337Z,0.73
2023-12-04T00:21:27.527Z,0.50
2023-12-04T00:23:55.749Z,0.70
2023-12-04T00:26:24.030Z,0.63
2023-12-04T00:28:52.150Z,0.70
2023-12-04T00:31:20.291Z,0.70
2023-12-04T00:33:50.493Z,0.60
2023-12-04T00:36:20.847Z,0.60
2023-12-04T00:38:49.071Z,0.47
2023-12-04T00:41:17.980Z,0.60
2023-12-04T00:43:46.127Z,0.50
2023-12-04T00:46:14.337Z,0.70
2023-12-04T00:48:42.635Z,0.77
2023-12-04T00:51:12.390Z,0.60
2023-12-04T00:53:40.594Z,0.57
2023-12-04T00:56:09.968Z,0.70
2023-12-04T00:58:38.065Z,0.80
2023-12-04T01:01:06.776Z,0.60
2023-12-04T01:03:35.292Z,0.52
2023-12-04T01:06:03.508Z,0.60
2023-12-04T01:08:33.154Z,0.70
2023-12-04T01:11:01.494Z,0.77
2023-12-04T01:13:29.634Z,0.70
2023-12-04T01:15:57.774Z,0.60
2023-12-04T01:18:26.051Z,0.80
2023-12-04T01:20:54.228Z,0.73
2023-12-04T01:23:22.400Z,0.50
2023-12-04T01:25:51.930Z,0.50
2023-12-04T01:28:20.071Z,0.80
2023-12-04T01:30:48.295Z,0.70
2023-12-04T01:33:16.435Z,0.65
2023-12-04T01:35:44.707Z,0.70
2023-12-04T01:38:12.951Z,0.70
2023-12-04T01:40:41.170Z,0.82
2023-12-04T01:43:10.740Z,0.68
2023-12-04T01:45:39.141Z,0.90
2023-12-04T01:48:07.539Z,0.70
2023-12-04T01:50:36.063Z,0.70
2023-12-04T01:53:04.440Z,0.60
2023-12-04T01:55:32.614Z,0.70
2023-12-04T01:58:01.093Z,0.60
2023-12-04T02:00:30.892Z,0.70
2023-12-04T02:02:58.982Z,0.80
2023-12-04T02:05:27.187Z,0.65
2023-12-04T02:07:55.392Z,0.70
2023-12-04T02:10:23.599Z,0.55
2023-12-04T02:12:51.953Z,0.70
2023-12-04T02:15:20.213Z,0.80
2023-12-04T02:17:49.861Z,0.90
2023-12-04T02:20:18.288Z,0.82
2023-12-04T02:22:46.459Z,0.85
2023-12-04T02:25:26.310Z,0.90
2023-12-04T02:28:04.951Z,0.70
2023-12-04T02:30:34.099Z,0.90
2023-12-04T02:33:03.391Z,0.93
2023-12-04T02:35:32.209Z,0.80
2023-12-04T02:38:00.474Z,0.80
2023-12-04T02:40:30.035Z,1.00
2023-12-04T02:42:59.057Z,0.90
2023-12-04T02:45:27.325Z,0.80
2023-12-04T02:47:55.907Z,0.80
2023-12-04T02:50:24.053Z,0.70
2023-12-04T02:52:52.221Z,1.00
2023-12-04T02:55:20.336Z,0.93
2023-12-04T02:57:50.059Z,0.93
2023-12-04T03:00:18.785Z,0.73
2023-12-04T03:02:46.982Z,0.80
2023-12-04T03:05:15.227Z,0.90
2023-12-04T03:07:43.411Z,0.80
2023-12-04T03:10:11.732Z,0.80
2023-12-04T03:12:40.097Z,0.80
2023-12-04T03:15:11.714Z,0.80
2023-12-04T03:17:39.880Z,1.05
2023-12-04T03:20:09.949Z,1.00
2023-12-04T03:22:38.810Z,0.95
2023-12-04T03:25:08.135Z,1.00
2023-12-04T03:27:36.439Z,0.90
2023-12-04T03:30:06.927Z,1.00
2023-12-04T03:32:36.513Z,0.80
2023-12-04T03:35:04.967Z,1.00
2023-12-04T03:37:33.081Z,1.10
2023-12-04T03:40:01.449Z,1.02
2023-12-04T03:42:29.691Z,1.00
2023-12-04T03:44:57.852Z,1.00
2023-12-04T03:47:26.533Z,0.88
2023-12-04T03:49:56.130Z,0.98
2023-12-04T03:52:26.677Z,1.00
2023-12-04T03:54:55.141Z,1.02
2023-12-04T03:57:23.378Z,1.00
2023-12-04T03:59:51.636Z,0.82
2023-12-04T04:02:19.834Z,1.10
2023-12-04T04:04:48.005Z,1.08
2023-12-04T04:07:18.360Z,1.10
2023-12-04T04:09:46.556Z,1.15
2023-12-04T04:12:14.798Z,1.20
2023-12-04T04:14:43.010Z,1.00
2023-12-04T04:17:11.192Z,1.05
2023-12-04T04:19:43.153Z,1.20
2023-12-04T04:22:11.391Z,1.10
2023-12-04T04:24:40.997Z,1.00
2023-12-04T04:27:09.205Z,1.13
2023-12-04T04:29:37.449Z,1.00
2023-12-04T04:32:06.375Z,1.10
2023-12-04T04:34:34.603Z,1.10
2023-12-04T04:37:02.898Z,1.10
2023-12-04T04:39:31.187Z,1.00
2023-12-04T04:42:00.786Z,1.05
2023-12-04T04:44:29.008Z,1.20
2023-12-04T04:46:58.399Z,1.00
2023-12-04T04:49:26.667Z,1.30
2023-12-04T04:51:54.934Z,1.00
2023-12-04T04:54:23.091Z,1.20
2023-12-04T04:56:52.399Z,1.38
2023-12-04T04:59:21.946Z,1.20
2023-12-04T05:01:50.128Z,1.20
2023-12-04T05:04:18.442Z,1.20
2023-12-04T05:06:46.719Z,1.30
2023-12-04T05:09:14.991Z,1.30
2023-12-04T05:11:43.202Z,1.13
2023-12-04T05:14:11.377Z,1.17
2023-12-04T05:16:40.940Z,1.20
2023-12-04T05:19:09.948Z,1.10
2023-12-04T05:21:38.318Z,1.10
2023-12-04T05:24:06.952Z,1.20
2023-12-04T05:26:35.210Z,1.20
2023-12-04T05:29:03.348Z,1.20
2023-12-04T05:31:31.548Z,1.08
2023-12-04T05:34:01.167Z,1.00
2023-12-04T05:36:29.841Z,1.10
2023-12-04T05:39:01.326Z,1.10
2023-12-04T05:41:29.735Z,1.10
2023-12-04T05:43:58.023Z,1.20
2023-12-04T05:46:27.601Z,1.10
2023-12-04T05:48:56.250Z,1.05
2023-12-04T05:51:25.912Z,1.08
2023-12-04T05:53:54.125Z,1.10
2023-12-04T05:56:22.365Z,1.10
2023-12-04T05:58:50.545Z,1.10
2023-12-04T06:01:18.872Z,1.13
2023-12-04T06:03:47.189Z,1.15
2023-12-04T06:06:15.322Z,1.10
2023-12-04T06:08:44.925Z,1.25
2023-12-04T06:11:13.163Z,1.30
2023-12-04T06:13:41.357Z,1.20
2023-12-04T06:16:10.374Z,1.10
2023-12-04T06:18:38.713Z,1.08
2023-12-04T06:21:07.467Z,1.30
2023-12-04T06:23:37.454Z,1.30
2023-12-04T06:26:07.745Z,1.20
2023-12-04T06:28:36.395Z,1.40
2023-12-04T06:31:05.451Z,1.08
2023-12-04T06:33:34.367Z,1.23
2023-12-04T06:36:02.961Z,1.20
2023-12-04T06:38:31.244Z,1.17
2023-12-04T06:41:00.102Z,1.08
2023-12-04T06:43:30.412Z,1.20
2023-12-04T06:46:00.164Z,1.38
2023-12-04T06:48:28.957Z,1.17
2023-12-04T06:50:57.180Z,1.33
2023-12-04T06:53:25.463Z,1.50
2023-12-04T06:55:53.655Z,1.23
2023-12-04T06:58:21.847Z,1.30
2023-12-04T07:00:51.601Z,1.50
2023-12-04T07:03:20.091Z,1.30
2023-12-04T07:05:48.226Z,1.20
2023-12-04T07:08:17.001Z,1.55
2023-12-04T07:10:45.297Z,1.40
2023-12-04T07:13:14.219Z,1.40
2023-12-04T07:15:42.618Z,1.30
2023-12-04T07:18:12.255Z,1.45
2023-12-04T07:20:40.483Z,1.20
2023-12-04T07:23:08.922Z,1.25
2023-12-04T07:25:38.715Z,1.60
2023-12-04T07:28:07.086Z,1.50
2023-12-04T07:30:35.285Z,1.40
2023-12-04T07:33:03.557Z,1.20
2023-12-04T07:35:33.187Z,1.45
2023-12-04T07:38:01.310Z,1.50
2023-12-04T07:40:29.559Z,1.60
2023-12-04T07:42:58.574Z,1.30
2023-12-04T07:45:28.447Z,1.27
2023-12-04T07:47:56.808Z,1.20
2023-12-04T07:50:25.471Z,1.20
2023-12-04T07:52:55.805Z,1.50
2023-12-04T07:55:24.122Z,1.60
2023-12-04T07:57:52.568Z,1.48
2023-12-04T08:00:23.966Z,1.20
2023-12-04T08:02:52.116Z,1.30
2023-12-04T08:05:20.249Z,1.52
2023-12-04T08:07:48.403Z,1.20
2023-12-04T08:10:18.251Z,1.35
2023-12-04T08:12:47.880Z,1.25
2023-12-04T08:15:16.196Z,1.50
2023-12-04T08:17:44.504Z,1.10
2023-12-04T08:20:19.968Z,1.20
2023-12-04T08:22:52.655Z,1.30
2023-12-04T08:25:22.227Z,1.23
2023-12-04T08:27:51.003Z,1.10
2023-12-04T08:30:19.496Z,1.30
2023-12-04T08:32:48.438Z,1.17
2023-12-04T08:35:16.923Z,1.10
2023-12-04T08:37:45.228Z,1.20
2023-12-04T08:40:14.203Z,1.10
2023-12-04T08:42:43.759Z,1.08
2023-12-04T08:45:12.480Z,1.20
2023-12-04T08:47:40.751Z,1.10
2023-12-04T08:50:10.695Z,1.10
2023-12-04T08:52:39.096Z,0.98
2023-12-04T08:55:09.567Z,1.00
2023-12-04T08:57:37.899Z,1.30
2023-12-04T09:00:10.783Z,1.13
2023-12-04T09:02:44.159Z,0.98
2023-12-04T09:05:17.692Z,0.90
2023-12-04T09:10:26.231Z,0.98
2023-12-04T09:13:06.532Z,0.90
2023-12-04T09:15:36.164Z,0.82
2023-12-04T09:18:05.127Z,1.10
2023-12-04T09:20:33.288Z,0.77
2023-12-04T09:23:06.867Z,1.00
2023-12-04T09:25:37.820Z,1.00
2023-12-04T09:28:06.392Z,0.60
2023-12-04T09:30:36.193Z,0.90
2023-12-04T09:33:04.739Z,0.90
2023-12-04T09:35:33.142Z,0.90
2023-12-04T09:38:01.345Z,0.90
2023-12-04T09:40:29.578Z,0.75
2023-12-04T09:42:57.853Z,0.80
2023-12-04T09:45:26.624Z,0.90
2023-12-04T09:47:56.383Z,0.82
2023-12-04T09:50:24.753Z,0.90
2023-12-04T09:52:53.355Z,0.70
2023-12-04T09:55:21.570Z,0.80
2023-12-04T09:57:50.408Z,0.70
2023-12-04T10:00:18.963Z,0.70
2023-12-04T10:02:47.285Z,0.90
2023-12-04T10:05:16.883Z,0.77
2023-12-04T10:07:45.254Z,0.80
2023-12-04T10:10:13.383Z,0.85
2023-12-04T10:12:41.728Z,0.90
2023-12-04T10:15:11.022Z,0.60
2023-12-04T10:17:39.831Z,0.80
2023-12-04T10:20:12.734Z,0.70
2023-12-04T10:22:53.706Z,0.88
2023-12-04T10:25:22.595Z,0.90
2023-12-04T10:27:50.772Z,0.80
2023-12-04T10:30:39.395Z,0.70
2023-12-04T10:33:08.849Z,0.70
2023-12-04T10:35:38.144Z,0.88
2023-12-04T10:38:08.395Z,0.90
2023-12-04T10:40:36.960Z,0.80
2023-12-04T10:43:13.114Z,0.70
2023-12-04T10:45:42.074Z,0.73
2023-12-04T10:48:12.602Z,0.90
2023-12-04T10:50:41.848Z,0.80
2023-12-04T10:53:12.574Z,0.70
2023-12-04T10:55:40.952Z,0.80
2023-12-04T10:58:10.335Z,0.75
2023-12-04T11:00:41.793Z,0.68
2023-12-04T11:03:10.587Z,0.80
2023-12-04T11:05:40.063Z,0.70
2023-12-04T11:08:15.581Z,0.70
2023-12-04T11:10:52.512Z,0.60
2023-12-04T11:13:24.223Z,0.60
2023-12-04T11:15:52.826Z,0.70
2023-12-04T11:18:23.763Z,0.80
2023-12-04T11:20:54.079Z,0.70
2023-12-04T11:23:22.249Z,0.80
2023-12-04T11:25:51.831Z,0.65
2023-12-04T11:28:20.004Z,0.60
2023-12-04T11:30:48.243Z,0.70
2023-12-04T11:33:16.909Z,0.70
2023-12-04T11:35:45.398Z,0.68
2023-12-04T11:38:16.602Z,0.80
2023-12-04T11:40:44.759Z,0.55
2023-12-04T11:43:27.318Z,0.70
2023-12-04T11:45:55.428Z,0.70
2023-12-04T11:48:26.782Z,0.70
2023-12-04T11:50:55.203Z,0.73
2023-12-04T11:53:23.509Z,0.65
2023-12-04T11:55:51.846Z,0.80
2023-12-04T11:58:20.050Z,0.90
2023-12-04T12:00:49.717Z,0.80
2023-12-04T12:03:23.119Z,0.90
2023-12-04T12:05:51.890Z,0.88
2023-12-04T12:08:20.804Z,0.77
2023-12-04T12:10:49.050Z,0.70
2023-12-04T12:13:17.330Z,1.05
2023-12-04T12:15:45.485Z,0.90
2023-12-04T12:18:15.203Z,1.00
2023-12-04T12:20:43.454Z,0.90
2023-12-04T12:23:12.534Z,0.90
2023-12-04T12:25:40.866Z,0.90
2023-12-04T12:28:09.042Z,0.80
2023-12-04T12:30:37.307Z,0.90
2023-12-04T12:33:05.620Z,0.85
2023-12-04T12:35:35.749Z,0.90
2023-12-04T12:38:04.337Z,0.90
2023-12-04T12:40:32.448Z,1.00
2023-12-04T12:43:08.806Z,0.80
2023-12-04T12:45:43.935Z,0.85
2023-12-04T12:48:15.579Z,1.02
2023-12-04T12:50:45.589Z,0.90
2023-12-04T12:53:14.150Z,0.90
2023-12-04T12:55:43.357Z,0.85
2023-12-04T12:58:11.785Z,0.80
2023-12-04T13:00:40.157Z,0.90
2023-12-04T13:03:08.699Z,0.90
2023-12-04T13:05:37.084Z,0.90
2023-12-04T13:08:07.012Z,1.00
2023-12-04T13:10:35.202Z,0.90
2023-12-04T13:13:03.792Z,1.08
2023-12-04T13:15:32.047Z,0.98
2023-12-04T13:18:00.327Z,0.93
2023-12-04T13:20:28.555Z,1.10
2023-12-04T13:22:57.160Z,1.00
2023-12-04T13:25:30.963Z,1.00
2023-12-04T13:27:59.422Z,0.85
2023-12-04T13:30:27.587Z,0.98
2023-12-04T13:32:56.471Z,1.00
2023-12-04T13:35:25.302Z,1.10
2023-12-04T13:37:56.866Z,1.08
2023-12-04T13:40:29.541Z,1.08
2023-12-04T13:43:16.384Z,0.80
2023-12-04T13:45:44.681Z,1.00
2023-12-04T13:48:14.442Z,1.00
2023-12-04T13:50:42.876Z,0.98
2023-12-04T13:53:11.041Z,0.93
2023-12-04T13:55:50.913Z,0.85
2023-12-04T13:58:34.488Z,1.20
2023-12-04T14:01:13.680Z,1.00
2023-12-04T14:03:42.797Z,0.82
2023-12-04T14:06:12.083Z,1.10
2023-12-04T14:08:40.692Z,1.00
2023-12-04T14:11:11.144Z,1.05
2023-12-04T14:13:42.104Z,1.02
2023-12-04T14:16:12.032Z,1.10
2023-12-04T14:18:40.224Z,1.20
2023-12-04T14:21:08.726Z,1.20
2023-12-04T14:23:36.895Z,1.20
2023-12-04T14:26:05.664Z,1.00
2023-12-04T14:28:42.194Z,1.17
2023-12-04T14:31:12.981Z,1.10
2023-12-04T14:33:43.253Z,1.20
2023-12-04T14:36:14.582Z,1.08
2023-12-04T14:38:43.072Z,1.00
2023-12-04T14:41:11.526Z,1.50
2023-12-04T14:43:40.326Z,1.20
2023-12-04T14:46:10.874Z,1.27
2023-12-04T14:48:42.376Z,1.30
2023-12-04T14:51:11.795Z,1.48
2023-12-04T14:53:48.318Z,1.17
2023-12-04T14:56:24.200Z,1.38
2023-12-04T14:59:21.501Z,1.23
2023-12-04T15:02:03.530Z,1.33
2023-12-04T15:05:02.446Z,1.30
2023-12-04T15:07:56.702Z,1.40
2023-12-04T15:13:37.889Z,1.30
2023-12-04T15:16:31.547Z,1.50
2023-12-04T15:19:30.695Z,1.40
2023-12-04T15:21:59.577Z,1.20
2023-12-04T15:24:27.817Z,1.42
2023-12-04T15:26:56.003Z,1.40
2023-12-04T15:29:24.928Z,1.60
2023-12-04T15:31:53.166Z,1.40
2023-12-04T15:34:22.912Z,1.17
2023-12-04T15:36:51.880Z,1.40
2023-12-04T15:39:20.352Z,1.40
2023-12-04T15:41:48.658Z,1.63
2023-12-04T15:44:18.639Z,1.70
2023-12-04T15:46:48.305Z,1.60
2023-12-04T15:49:16.778Z,1.35
2023-12-04T15:51:45.113Z,1.70
2023-12-04T15:54:12.410Z,1.70
2023-12-04T15:56:40.676Z,1.73
2023-12-04T15:59:07.873Z,1.50
2023-12-04T16:01:36.085Z,1.80
2023-12-04T16:04:06.000Z,1.48
2023-12-04T16:06:34.459Z,1.80
2023-12-04T16:09:02.792Z,1.63
2023-12-04T16:11:30.962Z,1.73
2023-12-04T16:13:59.165Z,1.88
2023-12-04T16:16:30.437Z,1.60
2023-12-04T16:18:58.624Z,1.60
2023-12-04T16:21:28.912Z,1.60
2023-12-04T16:23:59.049Z,1.73
2023-12-04T16:26:27.217Z,1.98
2023-12-04T16:28:55.422Z,1.90
2023-12-04T16:31:25.169Z,1.60
2023-12-04T16:33:53.447Z,1.63
2023-12-04T16:36:21.830Z,1.95
2023-12-04T16:38:51.411Z,1.55
2023-12-04T16:41:19.666Z,1.67
2023-12-04T16:43:47.897Z,1.70
2023-12-04T16:46:16.704Z,1.63
2023-12-04T16:48:45.475Z,1.60
2023-12-04T16:51:13.861Z,1.80
2023-12-04T16:53:42.037Z,1.90
2023-12-04T16:56:20.570Z,1.70
2023-12-04T16:58:48.766Z,1.80
2023-12-04T17:01:16.993Z,1.80
2023-12-04T17:03:45.361Z,1.67
2023-12-04T17:06:13.833Z,2.05
2023-12-04T17:08:42.193Z,1.92
2023-12-04T17:11:10.349Z,1.80
2023-12-04T17:13:39.920Z,1.70
2023-12-04T17:16:09.314Z,2.05
2023-12-04T17:18:38.350Z,1.77
2023-12-04T17:21:07.139Z,1.90
2023-12-04T17:23:35.410Z,2.20
2023-12-04T17:26:04.192Z,1.90
2023-12-04T17:28:32.484Z,2.05
2023-12-04T17:31:02.021Z,1.88
2023-12-04T17:33:30.327Z,1.75
2023-12-04T17:36:00.372Z,1.92
2023-12-04T17:38:28.632Z,1.88
2023-12-04T17:40:56.893Z,1.98
2023-12-04T17:43:25.213Z,2.10
2023-12-04T17:45:53.414Z,2.05
2023-12-04T17:48:23.010Z,1.85
2023-12-04T17:50:51.237Z,2.00
2023-12-04T17:53:19.374Z,2.05
2023-12-04T17:55:47.594Z,2.20
2023-12-04T17:58:16.106Z,2.40
2023-12-04T18:00:45.240Z,1.88
2023-12-04T18:03:14.771Z,2.00
2023-12-04T18:05:44.575Z,2.10
2023-12-04T18:08:12.770Z,2.22
2023-12-04T18:10:41.713Z,2.20
2023-12-04T18:13:09.905Z,2.03
2023-12-04T18:15:39.275Z,2.20
2023-12-04T18:18:07.980Z,2.30
2023-12-04T18:20:36.281Z,1.92
2023-12-04T18:23:05.916Z,2.30
2023-12-04T18:25:37.471Z,2.20
2023-12-04T18:28:06.340Z,2.30
2023-12-04T18:30:35.847Z,2.42
2023-12-04T18:33:06.128Z,2.20
2023-12-04T18:35:35.012Z,2.30
2023-12-04T18:38:08.167Z,2.08
2023-12-04T18:40:36.649Z,2.28
2023-12-04T18:43:05.432Z,2.38
2023-12-04T18:45:34.814Z,2.28
2023-12-04T18:48:06.801Z,2.42
2023-12-04T18:50:40.902Z,2.47
2023-12-04T18:53:12.448Z,2.47
2023-12-04T18:55:40.899Z,2.38
2023-12-04T18:58:14.402Z,2.35
2023-12-04T19:00:42.774Z,2.47
2023-12-04T19:03:11.689Z,2.40
2023-12-04T19:05:40.020Z,2.50
2023-12-04T19:08:08.273Z,2.45
2023-12-04T19:10:38.099Z,2.45
2023-12-04T19:13:06.324Z,2.70
2023-12-04T19:15:34.758Z,2.50
2023-12-04T19:18:03.201Z,2.47
2023-12-04T19:20:31.980Z,2.58
2023-12-04T19:23:01.896Z,2.75
2023-12-04T19:25:34.196Z,2.83
2023-12-04T19:28:04.629Z,2.90
2023-12-04T19:30:34.630Z,2.88
2023-12-04T19:33:06.729Z,2.42
2023-12-04T19:35:37.017Z,3.22
2023-12-04T19:38:05.224Z,2.78
2023-12-04T19:40:34.284Z,2.80
2023-12-04T19:43:05.070Z,2.50
2023-12-04T19:45:33.306Z,2.70
2023-12-04T19:48:01.522Z,2.80
2023-12-04T19:50:30.839Z,2.83
2023-12-04T19:52:58.981Z,2.88
2023-12-04T19:55:27.201Z,3.05
2023-12-04T19:57:55.477Z,2.80
2023-12-04T20:00:25.202Z,2.65
2023-12-04T20:02:53.391Z,2.60
2023-12-04T20:05:22.920Z,2.63
2023-12-04T20:07:51.797Z,2.97
2023-12-04T20:10:19.949Z,3.00
2023-12-04T20:12:48.176Z,2.83
2023-12-04T20:15:16.412Z,2.80
2023-12-04T20:17:46.036Z,2.95
2023-12-04T20:20:14.363Z,3.05
2023-12-04T20:22:45.098Z,3.30
2023-12-04T20:25:13.320Z,2.72
2023-12-04T20:27:41.547Z,3.08
2023-12-04T20:30:10.684Z,3.00
2023-12-04T20:32:38.891Z,3.17
2023-12-04T20:35:09.248Z,3.30
2023-12-04T20:37:41.945Z,2.95
2023-12-04T20:40:12.032Z,3.00
2023-12-04T20:42:40.506Z,3.40
2023-12-04T20:45:12.413Z,3.05
2023-12-04T20:47:40.890Z,3.22
2023-12-04T20:50:11.808Z,3.30
2023-12-04T20:52:40.024Z,3.22
2023-12-04T20:55:08.975Z,3.20
2023-12-04T20:57:37.144Z,3.13
2023-12-04T21:00:07.817Z,3.63
2023-12-04T21:02:36.269Z,3.50
2023-12-04T21:05:04.746Z,3.35
2023-12-04T21:07:34.564Z,2.90
2023-12-04T21:10:02.783Z,3.20
2023-12-04T21:12:31.130Z,3.25
2023-12-04T21:15:00.786Z,3.40
2023-12-04T21:17:29.343Z,3.42
2023-12-04T21:19:57.771Z,3.25
2023-12-04T21:22:25.973Z,3.25
2023-12-04T21:24:55.893Z,3.70
2023-12-04T21:27:24.782Z,3.40
2023-12-04T21:29:53.079Z,3.35
2023-12-04T21:32:21.191Z,3.50
2023-12-04T21:34:49.409Z,3.20
2023-12-04T21:37:17.668Z,3.30
2023-12-04T21:39:48.724Z,3.22
2023-12-04T21:42:18.398Z,3.17
2023-12-04T21:44:46.616Z,3.15
2023-12-04T21:47:15.105Z,3.42
2023-12-04T21:49:44.526Z,3.00
2023-12-04T21:52:12.785Z,3.55
2023-12-04T21:54:40.984Z,3.38
2023-12-04T21:57:09.161Z,3.42
2023-12-04T21:59:38.782Z,3.20
2023-12-04T22:02:06.966Z,3.47
2023-12-04T22:04:35.365Z,3.45
2023-12-04T22:07:04.526Z,3.60
2023-12-04T22:09:32.806Z,3.20
2023-12-04T22:12:01.030Z,3.72
2023-12-04T22:14:29.295Z,3.38
2023-12-04T22:16:58.837Z,3.40
2023-12-04T22:19:27.386Z,3.67
2023-12-04T22:21:55.686Z,3.40
2023-12-04T22:24:23.920Z,3.42
2023-12-04T22:26:52.065Z,3.83
2023-12-04T22:29:20.300Z,3.13
2023-12-04T22:31:48.710Z,3.50
2023-12-04T22:34:18.280Z,3.95
2023-12-04T22:36:46.611Z,3.22
2023-12-04T22:39:16.274Z,3.63
2023-12-04T22:41:44.416Z,3.22
2023-12-04T22:44:12.516Z,3.45
2023-12-04T22:46:41.636Z,3.47
2023-12-04T22:49:09.869Z,3.45
2023-12-04T22:51:39.496Z,2.95
2023-12-04T22:54:07.850Z,3.45
2023-12-04T22:56:36.232Z,3.17
2023-12-04T22:59:04.489Z,3.85
2023-12-04T23:01:32.629Z,3.40
2023-12-04T23:04:01.473Z,3.50
2023-12-04T23:06:29.919Z,3.17
2023-12-04T23:08:59.553Z,3.33
2023-12-04T23:11:27.774Z,3.35
2023-12-04T23:13:55.909Z,3.42
2023-12-04T23:16:24.393Z,3.10
2023-12-04T23:18:52.652Z,3.72
2023-12-04T23:21:20.937Z,3.70
2023-12-04T23:23:49.141Z,3.53
2023-12-04T23:26:18.680Z,3.28
2023-12-04T23:28:47.155Z,3.17
2023-12-04T23:31:15.352Z,3.22
2023-12-04T23:33:43.651Z,3.17
2023-12-04T23:36:12.829Z,3.50
2023-12-04T23:38:41.005Z,3.22
2023-12-04T23:41:09.371Z,3.72
2023-12-04T23:43:38.978Z,3.05
2023-12-04T23:46:07.346Z,3.60
2023-12-04T23:48:35.743Z,3.35
2023-12-04T23:51:04.170Z,3.70
2023-12-04T23:53:32.341Z,3.65
2023-12-04T23:56:00.514Z,3.38
2023-12-04T23:58:28.737Z,3.45
